Grand Junction, CO

11:22 PM MDT on October 01, 2014 (GMT -0600)
Delta | Change Station
CLOSE
Current Station
Airport
Location: Delta,
Elevation: 5194 ft
Nearby Weather Stations

Elev 5194 ft 38.79 °N, 108.07 °W | Updated 7 minutes ago

Overcast
Overcast
49 °F
Feels Like 49 °F
N
8
Wind Variable Wind from West

Today
High -- | Low -- °F
--% Chance of Precip.
Yesterday
High -- | Low -- °F
Precip. -- in
7:10 AM 6:56 PM
First Quarter, 55% visible
Pressure 30.16 in
Visibility 10.0 miles
Clouds Mostly Cloudy 1800 ft
Mostly Cloudy 7000 ft
Overcast 8500 ft
Dew Point 43 °F
Humidity 80%
Rainfall 0.25 in
Snow Depth 0 in , 2 in , 0 in
UV 0 out of 12
Pollen 3.80 out of 12
Air Quality Not available.
Flu Activity Not available.
METAR KAJZ 020515Z AUTO 26007KT 10SM RA BKN018 BKN070 OVC085 09/06 A3016 RMK AO2 T00920059

More Conditions Fewer Conditions

Pressure 30.16 in
Visibility 10.0 miles
Clouds Mostly Cloudy 1800 ft
Mostly Cloudy 7000 ft
Overcast 8500 ft
Dew Point 43 °F
Humidity 80%
Rainfall 0.25 in
Snow Depth 0 in , 2 in , 0 in
UV 0 out of 12
Pollen 3.80 out of 12
Air Quality Not available.
Flu Activity Not available.
METAR KAJZ 020515Z AUTO 26007KT 10SM RA BKN018 BKN070 OVC085 09/06 A3016 RMK AO2 T00920059

More Conditions Fewer Conditions

10-Day Weather Forecast

Almanac

Astronomy

Oct. 01, 2014 Rise Set
Actual Time 7:10 AM MDT 6:56 PM MDT
Civil Twilight 6:43 AM MDT 7:23 PM MDT
Nautical Twilight 6:12 AM MDT 7:54 PM MDT
Astronomical Twilight 5:41 AM MDT 8:25 PM MDT
Moon 2:11 PM MDT (10/1) No Moon Set
Length of Visible Light 12h 39m
Length of Day
11h 46m
Tomorrow will be 2m 31s shorter.
First Quarter, 55% of the Moon is Illuminated
Oct 2
First Quarter
Oct 8
Full
Oct 15
Last Quarter
Oct 23
New
Oct 30
First Quarter

Yesterday's Extremes

State Highs State Lows

Community

WunderPhotos

Upload Photos

1,758,195 photos uploaded!

Nearby

Snow Depth

Station Depth Elevation
Culebra #2 0 in 10500 ft
Trapper Lake 2 in 9700 ft
Trinchera 0 in 10860 ft
Park Cone 0 in 9600 ft
Ute Creek 1 in 10650 ft

Earthquake Activity

City Distance Mag. Time & Date
No recent earthquake activity has been reported nearby.
Minimum magnitude displayed is 2.5.

Coastal Water Temperatures

Place Temperature
No Stations Reporting

Nearby Weather Stations